Terminal Aerodrome Forecast
Issued by NWS Central Illinois

Home | Current Version | Previous Version | Text Only | Print | Product List | Glossary On
Versions: 1 2 3 4 5 6 7 8 9 10 11 12 13 14
000
FTUS43 KILX 242334
TAFSPI
TAF
KSPI 242334Z 2500/2524 14013G19KT P6SM VCSH OVC045
     FM250400 14012G17KT P6SM -SHRA VCTS OVC035CB
     FM250700 14015KT P6SM -SHRA VCTS SCT015 OVC030CB
     FM251200 14012KT 4SM -SHRA BR VCTS BKN007CB OVC015
     FM251900 04014KT 4SM -RA BR OVC007=

USA.gov is the U.S. government's official web portal to all federal, state and local government web resources and services.